createdAt,value
2018-05-06T00:00:08.663Z,0.00
2018-05-06T00:01:08.678Z,0.00
2018-05-06T00:02:08.693Z,0.00
2018-05-06T00:03:08.707Z,0.00
2018-05-06T00:04:08.723Z,0.00
2018-05-06T00:05:08.737Z,0.00
2018-05-06T00:06:08.752Z,0.00
2018-05-06T00:07:08.772Z,0.00
2018-05-06T00:08:08.782Z,0.00
2018-05-06T00:09:08.796Z,0.00
2018-05-06T00:10:08.812Z,0.00
2018-05-06T00:11:08.824Z,0.00
2018-05-06T00:12:08.838Z,0.00
2018-05-06T00:13:08.855Z,0.00
2018-05-06T00:14:08.868Z,0.00
2018-05-06T00:15:08.967Z,0.00
2018-05-06T00:16:08.896Z,0.00
2018-05-06T00:17:08.912Z,0.00
2018-05-06T00:18:08.926Z,0.00
2018-05-06T00:19:08.942Z,0.00
2018-05-06T00:20:08.956Z,0.00
2018-05-06T00:21:08.969Z,0.00
2018-05-06T00:22:08.984Z,0.00
2018-05-06T00:23:08.997Z,0.00
2018-05-06T00:24:09.015Z,0.00
2018-05-06T00:25:09.029Z,0.00
2018-05-06T00:26:09.043Z,0.00
2018-05-06T00:27:09.056Z,0.00
2018-05-06T00:28:09.072Z,0.00
2018-05-06T00:29:09.085Z,0.00
2018-05-06T00:30:09.103Z,0.00
2018-05-06T00:31:09.118Z,0.00
2018-05-06T00:32:09.129Z,0.00
2018-05-06T00:33:09.183Z,0.00
2018-05-06T00:34:09.167Z,0.00
2018-05-06T00:35:09.173Z,0.00
2018-05-06T00:36:09.187Z,0.00
2018-05-06T00:37:09.199Z,0.00
2018-05-06T00:38:09.218Z,0.00
2018-05-06T00:39:09.237Z,0.00
2018-05-06T00:40:09.246Z,0.00
2018-05-06T00:41:09.261Z,0.00
2018-05-06T00:42:09.272Z,0.00
2018-05-06T00:43:09.287Z,0.00
2018-05-06T00:44:09.301Z,0.00
2018-05-06T00:45:09.328Z,0.00
2018-05-06T00:46:09.330Z,0.00
2018-05-06T00:47:09.344Z,0.00
2018-05-06T00:48:09.358Z,0.00
2018-05-06T00:49:09.372Z,0.00
2018-05-06T00:50:09.386Z,0.00
2018-05-06T00:51:09.400Z,0.00
2018-05-06T00:52:09.413Z,0.00
2018-05-06T00:53:09.428Z,0.00
2018-05-06T00:54:09.443Z,0.00
2018-05-06T00:55:09.455Z,0.00
2018-05-06T00:56:09.473Z,0.00
2018-05-06T00:57:09.483Z,0.00
2018-05-06T00:58:09.499Z,0.00
2018-05-06T00:59:09.514Z,0.00
2018-05-06T01:00:09.533Z,0.00
2018-05-06T01:01:09.542Z,0.00
2018-05-06T01:02:09.556Z,0.00
2018-05-06T01:03:09.572Z,0.00
2018-05-06T01:04:09.590Z,0.00
2018-05-06T01:05:09.598Z,0.00
2018-05-06T01:06:09.613Z,0.00
2018-05-06T01:07:09.627Z,0.00
2018-05-06T01:08:09.640Z,0.00
2018-05-06T01:09:09.655Z,0.00
2018-05-06T01:10:09.674Z,0.00
2018-05-06T01:11:09.685Z,0.00
2018-05-06T01:12:09.697Z,0.00
2018-05-06T01:13:09.714Z,0.00
2018-05-06T01:14:09.726Z,0.00
2018-05-06T01:15:09.740Z,0.00
2018-05-06T01:16:09.754Z,0.00
2018-05-06T01:17:09.767Z,0.00
2018-05-06T01:18:09.784Z,0.00
2018-05-06T01:19:09.809Z,0.00
2018-05-06T01:20:09.809Z,0.00
2018-05-06T01:21:09.827Z,0.00
2018-05-06T01:22:09.838Z,0.00
2018-05-06T01:23:09.855Z,0.00
2018-05-06T01:24:09.867Z,0.00
2018-05-06T01:25:09.882Z,0.00
2018-05-06T01:26:09.894Z,0.00
2018-05-06T01:27:09.909Z,0.00
2018-05-06T01:28:09.925Z,0.00
2018-05-06T01:29:09.998Z,0.00
2018-05-06T01:30:09.950Z,0.00
2018-05-06T01:31:09.966Z,0.00
2018-05-06T01:32:09.978Z,0.00
2018-05-06T01:33:09.993Z,0.00
2018-05-06T01:34:10.008Z,0.00
2018-05-06T01:35:10.022Z,0.00
2018-05-06T01:36:10.035Z,0.00
2018-05-06T01:37:10.049Z,0.00
2018-05-06T01:38:10.064Z,0.00
2018-05-06T01:39:10.076Z,0.00
2018-05-06T01:40:10.091Z,0.00
2018-05-06T01:41:10.105Z,0.00
2018-05-06T01:42:10.119Z,0.00
2018-05-06T01:43:10.139Z,0.00
2018-05-06T01:44:10.148Z,0.00
2018-05-06T01:45:10.160Z,0.00
2018-05-06T01:46:10.175Z,0.00
2018-05-06T01:47:10.189Z,0.00
2018-05-06T01:48:10.203Z,0.00
2018-05-06T01:49:10.218Z,0.00
2018-05-06T01:50:10.231Z,0.00
2018-05-06T01:51:10.244Z,0.00
2018-05-06T01:52:10.258Z,0.00
2018-05-06T01:53:10.272Z,0.00
2018-05-06T01:54:10.285Z,0.00
2018-05-06T01:55:10.300Z,0.00
2018-05-06T01:56:10.312Z,0.00
2018-05-06T01:57:10.327Z,0.00
2018-05-06T01:58:10.341Z,0.00
2018-05-06T01:59:10.357Z,0.00
2018-05-06T02:00:10.369Z,0.00
2018-05-06T02:01:10.384Z,0.00
2018-05-06T02:02:10.397Z,0.00
2018-05-06T02:03:10.411Z,0.00
2018-05-06T02:04:10.425Z,0.00
2018-05-06T02:05:10.439Z,0.00
2018-05-06T02:06:10.454Z,0.00
2018-05-06T02:07:10.468Z,0.00
2018-05-06T02:08:10.480Z,0.00
2018-05-06T02:09:10.494Z,0.00
2018-05-06T02:10:10.508Z,0.00
2018-05-06T02:11:10.524Z,0.00
2018-05-06T02:12:10.536Z,0.00
2018-05-06T02:13:10.552Z,0.00
2018-05-06T02:14:10.563Z,0.00
2018-05-06T02:15:10.580Z,0.00
2018-05-06T02:16:10.593Z,0.00
2018-05-06T02:17:10.606Z,0.00
2018-05-06T02:18:10.620Z,0.00
2018-05-06T02:19:10.636Z,0.00
2018-05-06T02:20:10.647Z,0.00
2018-05-06T02:21:10.661Z,0.00
2018-05-06T02:22:10.676Z,0.00
2018-05-06T02:23:10.689Z,0.00
2018-05-06T02:24:10.705Z,0.00
2018-05-06T02:25:10.718Z,0.00
2018-05-06T02:26:10.732Z,0.00
2018-05-06T02:27:10.747Z,0.00
2018-05-06T02:28:10.763Z,0.00
2018-05-06T02:29:10.781Z,0.00
2018-05-06T02:30:10.787Z,0.00
2018-05-06T02:31:10.804Z,0.00
2018-05-06T02:32:10.815Z,0.00
2018-05-06T02:33:10.829Z,0.00
2018-05-06T02:34:10.844Z,0.00
2018-05-06T02:35:10.865Z,0.00
2018-05-06T02:36:10.870Z,0.00
2018-05-06T02:37:10.886Z,0.00
2018-05-06T02:38:10.903Z,0.00
2018-05-06T02:39:10.913Z,0.00
2018-05-06T02:40:10.927Z,0.00
2018-05-06T02:41:10.942Z,0.00
2018-05-06T02:42:10.953Z,0.00
2018-05-06T02:43:10.969Z,0.00
2018-05-06T02:44:10.982Z,0.00
2018-05-06T02:45:10.996Z,0.00
2018-05-06T02:46:11.014Z,0.00
2018-05-06T02:47:11.029Z,0.00
2018-05-06T02:48:11.037Z,0.00
2018-05-06T02:49:11.052Z,0.00
2018-05-06T02:50:11.066Z,0.00
2018-05-06T02:51:11.081Z,0.00
2018-05-06T02:52:11.094Z,0.00
2018-05-06T02:53:11.113Z,0.00
2018-05-06T02:54:11.121Z,0.00
2018-05-06T02:55:11.136Z,0.00
2018-05-06T02:56:11.150Z,0.00
2018-05-06T02:57:11.162Z,0.00
2018-05-06T02:58:11.179Z,0.00
2018-05-06T02:59:11.190Z,0.00
2018-05-06T03:00:11.203Z,0.00
2018-05-06T03:01:11.217Z,0.00
2018-05-06T03:02:11.234Z,0.00
2018-05-06T03:03:11.248Z,0.00
2018-05-06T03:04:11.259Z,0.00
2018-05-06T03:05:11.274Z,0.00
2018-05-06T03:06:11.287Z,0.00
2018-05-06T03:07:11.303Z,0.00
2018-05-06T03:08:11.315Z,0.00
2018-05-06T03:09:11.327Z,0.00
2018-05-06T03:10:11.342Z,0.00
2018-05-06T03:11:11.357Z,0.00
2018-05-06T03:12:11.370Z,0.00
2018-05-06T03:13:11.384Z,0.00
2018-05-06T03:14:11.398Z,0.00
2018-05-06T03:15:11.418Z,0.00
2018-05-06T03:16:11.426Z,0.00
2018-05-06T03:17:11.440Z,0.00
2018-05-06T03:18:11.457Z,0.00
2018-05-06T03:19:11.467Z,0.00
2018-05-06T03:20:11.481Z,0.00
2018-05-06T03:21:11.495Z,0.00
2018-05-06T03:22:11.509Z,0.00
2018-05-06T03:23:11.522Z,0.00
2018-05-06T03:24:11.536Z,0.00
2018-05-06T03:25:11.549Z,0.00
2018-05-06T03:26:11.563Z,0.00
2018-05-06T03:27:11.578Z,0.00
2018-05-06T03:28:11.595Z,0.00
2018-05-06T03:29:11.606Z,0.00
2018-05-06T03:30:11.622Z,0.00
2018-05-06T03:31:11.635Z,0.00
2018-05-06T03:32:11.647Z,0.00
2018-05-06T03:33:11.660Z,0.00
2018-05-06T03:34:11.675Z,0.00
2018-05-06T03:35:11.689Z,0.00
2018-05-06T03:36:11.703Z,0.00
2018-05-06T03:37:11.717Z,0.00
2018-05-06T03:38:11.731Z,0.00
2018-05-06T03:39:11.746Z,0.00
2018-05-06T03:40:11.759Z,0.00
2018-05-06T03:41:11.771Z,0.00
2018-05-06T03:42:11.786Z,0.00
2018-05-06T03:43:11.801Z,0.00
2018-05-06T03:44:11.813Z,0.00
2018-05-06T03:45:11.827Z,0.00
2018-05-06T03:46:11.846Z,0.00
2018-05-06T03:47:11.856Z,0.00
2018-05-06T03:48:11.869Z,0.00
2018-05-06T03:49:11.884Z,0.00
2018-05-06T03:50:11.899Z,0.00
2018-05-06T03:51:11.911Z,0.00
2018-05-06T03:52:11.923Z,0.00
2018-05-06T03:53:11.938Z,0.00
2018-05-06T03:54:11.952Z,0.00
2018-05-06T03:55:11.965Z,0.00
2018-05-06T03:56:11.978Z,4.00
2018-05-06T03:57:12.000Z,0.00
2018-05-06T03:58:12.007Z,4.00
2018-05-06T03:59:12.021Z,0.00
2018-05-06T04:00:12.033Z,0.00
2018-05-06T04:01:12.048Z,4.00
2018-05-06T04:02:12.066Z,4.00
2018-05-06T04:03:12.125Z,0.00
2018-05-06T04:04:12.091Z,0.00
2018-05-06T04:05:12.103Z,4.00
2018-05-06T04:06:12.117Z,4.00
2018-05-06T04:07:12.136Z,4.00
2018-05-06T04:08:12.143Z,8.00
2018-05-06T04:09:12.157Z,8.00
2018-05-06T04:10:12.169Z,4.00
2018-05-06T04:11:12.185Z,4.00
2018-05-06T04:12:12.197Z,8.00
2018-05-06T04:13:12.212Z,8.00
2018-05-06T04:14:12.224Z,8.00
2018-05-06T04:15:12.237Z,8.00
2018-05-06T04:16:12.251Z,8.00
2018-05-06T04:17:12.264Z,12.00
2018-05-06T04:18:12.280Z,8.00
2018-05-06T04:19:12.292Z,12.00
2018-05-06T04:20:12.315Z,12.00
2018-05-06T04:21:12.358Z,12.00
2018-05-06T04:22:12.335Z,16.00
2018-05-06T04:23:12.347Z,16.00
2018-05-06T04:24:12.357Z,16.00
2018-05-06T04:25:12.372Z,16.00
2018-05-06T04:26:12.387Z,16.00
2018-05-06T04:27:12.401Z,20.00
2018-05-06T04:28:12.413Z,16.00
2018-05-06T04:29:12.427Z,20.00
2018-05-06T04:30:12.444Z,20.00
2018-05-06T04:31:12.457Z,24.00
2018-05-06T04:32:12.468Z,20.00
2018-05-06T04:33:12.481Z,24.00
2018-05-06T04:34:12.495Z,24.00
2018-05-06T04:35:12.507Z,24.00
2018-05-06T04:36:12.520Z,24.00
2018-05-06T04:37:12.534Z,28.00
2018-05-06T04:38:12.548Z,32.00
2018-05-06T04:39:12.568Z,32.00
2018-05-06T04:40:12.576Z,32.00
2018-05-06T04:41:12.590Z,32.00
2018-05-06T04:42:12.601Z,32.00
2018-05-06T04:43:12.616Z,36.00
2018-05-06T04:44:12.686Z,36.00
2018-05-06T04:45:12.644Z,36.00
2018-05-06T04:46:12.653Z,36.00
2018-05-06T04:47:12.671Z,40.00
2018-05-06T04:48:12.683Z,40.00
2018-05-06T04:49:12.694Z,40.00
2018-05-06T04:50:12.708Z,40.00
2018-05-06T04:51:12.721Z,40.00
2018-05-06T04:52:12.733Z,40.00
2018-05-06T04:53:12.749Z,44.00
2018-05-06T04:54:12.761Z,44.00
2018-05-06T04:55:12.775Z,48.00
2018-05-06T04:56:12.787Z,48.00
2018-05-06T04:57:12.800Z,44.00
2018-05-06T04:58:12.817Z,48.00
2018-05-06T04:59:12.828Z,48.00
2018-05-06T05:00:12.840Z,48.00
2018-05-06T05:01:12.853Z,52.00
2018-05-06T05:02:12.869Z,52.00
2018-05-06T05:03:12.886Z,52.00
2018-05-06T05:04:12.895Z,52.00
2018-05-06T05:05:12.907Z,52.00
2018-05-06T05:06:12.927Z,56.00
2018-05-06T05:07:12.935Z,56.00
2018-05-06T05:08:12.948Z,56.00
2018-05-06T05:09:12.962Z,60.00
2018-05-06T05:10:12.976Z,60.00
2018-05-06T05:11:12.989Z,56.00
2018-05-06T05:12:13.003Z,60.00
2018-05-06T05:13:13.015Z,60.00
2018-05-06T05:14:13.030Z,60.00
2018-05-06T05:15:13.043Z,64.00
2018-05-06T05:16:13.055Z,64.00
2018-05-06T05:17:13.070Z,60.00
2018-05-06T05:18:13.087Z,64.00
2018-05-06T05:19:13.097Z,64.00
2018-05-06T05:20:13.115Z,68.00
2018-05-06T05:21:13.184Z,64.00
2018-05-06T05:22:13.137Z,68.00
2018-05-06T05:23:13.150Z,68.00
2018-05-06T05:24:13.164Z,68.00
2018-05-06T05:25:13.178Z,68.00
2018-05-06T05:26:13.190Z,72.00
2018-05-06T05:27:13.206Z,72.00
2018-05-06T05:28:13.217Z,72.00
2018-05-06T05:29:13.232Z,72.00
2018-05-06T05:30:13.246Z,72.00
2018-05-06T05:31:13.259Z,72.00
2018-05-06T05:32:13.272Z,76.00
2018-05-06T05:33:13.289Z,72.00
2018-05-06T05:34:13.304Z,76.00
2018-05-06T05:35:13.315Z,76.00
2018-05-06T05:36:13.331Z,76.00
2018-05-06T05:37:13.342Z,76.00
2018-05-06T05:38:13.354Z,80.00
2018-05-06T05:39:13.369Z,80.00
2018-05-06T05:40:13.386Z,80.00
2018-05-06T05:41:13.397Z,80.00
2018-05-06T05:42:13.412Z,80.00
2018-05-06T05:43:13.425Z,84.00
2018-05-06T05:44:13.435Z,80.00
2018-05-06T05:45:13.450Z,84.00
2018-05-06T05:46:13.463Z,84.00
2018-05-06T05:47:13.478Z,84.00
2018-05-06T05:48:13.491Z,84.00
2018-05-06T05:49:13.505Z,92.00
2018-05-06T05:50:13.520Z,100.00
2018-05-06T05:51:13.536Z,100.00
2018-05-06T05:52:13.545Z,104.00
2018-05-06T05:53:13.562Z,108.00
2018-05-06T05:54:13.579Z,104.00
2018-05-06T05:55:13.596Z,108.00
2018-05-06T05:56:13.603Z,108.00
2018-05-06T05:57:13.622Z,108.00
2018-05-06T05:58:13.631Z,108.00
2018-05-06T05:59:13.643Z,112.00
2018-05-06T06:00:13.657Z,112.00
2018-05-06T06:01:13.672Z,116.00
2018-05-06T06:02:13.684Z,112.00
2018-05-06T06:03:13.700Z,116.00
2018-05-06T06:04:13.713Z,116.00
2018-05-06T06:05:13.728Z,116.00
2018-05-06T06:06:13.741Z,120.00
2018-05-06T06:07:13.757Z,116.00
2018-05-06T06:08:13.770Z,120.00
2018-05-06T06:09:13.783Z,120.00
2018-05-06T06:10:13.798Z,120.00
2018-05-06T06:11:13.812Z,120.00
2018-05-06T06:12:13.827Z,124.00
2018-05-06T06:13:13.838Z,124.00
2018-05-06T06:14:13.854Z,124.00
2018-05-06T06:15:13.869Z,124.00
2018-05-06T06:16:13.885Z,128.00
2018-05-06T06:17:13.897Z,128.00
2018-05-06T06:18:13.911Z,128.00
2018-05-06T06:19:13.924Z,128.00
2018-05-06T06:20:13.937Z,128.00
2018-05-06T06:21:13.953Z,128.00
2018-05-06T06:22:13.967Z,128.00
2018-05-06T06:23:13.982Z,128.00
2018-05-06T06:24:14.003Z,132.00
2018-05-06T06:25:14.011Z,128.00
2018-05-06T06:26:14.023Z,132.00
2018-05-06T06:27:14.043Z,132.00
2018-05-06T06:28:14.052Z,132.00
2018-05-06T06:29:14.063Z,132.00
2018-05-06T06:30:14.082Z,136.00
2018-05-06T06:31:14.094Z,136.00
2018-05-06T06:32:14.109Z,136.00
2018-05-06T06:33:14.126Z,136.00
2018-05-06T06:34:14.137Z,136.00
2018-05-06T06:35:14.157Z,140.00
2018-05-06T06:36:14.172Z,140.00
2018-05-06T06:37:14.181Z,140.00
2018-05-06T06:38:14.252Z,140.00
2018-05-06T06:39:14.210Z,144.00
2018-05-06T06:40:14.226Z,144.00
2018-05-06T06:41:14.238Z,144.00
2018-05-06T06:42:14.253Z,148.00
2018-05-06T06:43:14.268Z,144.00
2018-05-06T06:44:14.279Z,148.00
2018-05-06T06:45:14.295Z,148.00
2018-05-06T06:46:14.310Z,148.00
2018-05-06T06:47:14.326Z,148.00
2018-05-06T06:48:14.339Z,152.00
2018-05-06T06:49:14.354Z,152.00
2018-05-06T06:50:14.366Z,152.00
2018-05-06T06:51:14.384Z,152.00
2018-05-06T06:52:14.395Z,156.00
2018-05-06T06:53:14.412Z,156.00
2018-05-06T06:54:14.426Z,156.00
2018-05-06T06:55:14.442Z,156.00
2018-05-06T06:56:14.453Z,160.00
2018-05-06T06:57:14.468Z,156.00
2018-05-06T06:58:14.483Z,164.00
2018-05-06T06:59:14.497Z,164.00
2018-05-06T07:00:14.517Z,164.00
2018-05-06T07:01:14.533Z,164.00
2018-05-06T07:02:14.546Z,168.00
2018-05-06T07:03:14.557Z,168.00
2018-05-06T07:04:14.571Z,168.00
2018-05-06T07:05:14.589Z,168.00
2018-05-06T07:06:14.599Z,172.00
2018-05-06T07:07:14.615Z,172.00
2018-05-06T07:08:14.628Z,172.00
2018-05-06T07:09:14.644Z,176.00
2018-05-06T07:10:14.658Z,176.00
2018-05-06T07:11:14.699Z,180.00
2018-05-06T07:12:14.687Z,180.00
2018-05-06T07:13:14.704Z,180.00
2018-05-06T07:14:14.717Z,180.00
2018-05-06T07:15:14.731Z,184.00
2018-05-06T07:16:14.745Z,184.00
2018-05-06T07:17:14.763Z,184.00
2018-05-06T07:18:14.776Z,188.00
2018-05-06T07:19:14.849Z,188.00
2018-05-06T07:20:14.806Z,188.00
2018-05-06T07:21:14.821Z,192.00
2018-05-06T07:22:14.836Z,192.00
2018-05-06T07:23:14.851Z,192.00
2018-05-06T07:24:14.867Z,196.00
2018-05-06T07:25:14.880Z,196.00
2018-05-06T07:26:14.897Z,200.00
2018-05-06T07:27:14.915Z,200.00
2018-05-06T07:28:14.929Z,204.00
2018-05-06T07:29:14.942Z,204.00
2018-05-06T07:30:14.955Z,204.00
2018-05-06T07:31:14.976Z,204.00
2018-05-06T07:32:14.987Z,208.00
2018-05-06T07:33:15.000Z,212.00
2018-05-06T07:34:15.017Z,216.00
2018-05-06T07:35:15.036Z,212.00
2018-05-06T07:36:15.047Z,216.00
2018-05-06T07:37:15.063Z,216.00
2018-05-06T07:38:15.077Z,216.00
2018-05-06T07:39:15.093Z,220.00
2018-05-06T07:40:15.107Z,220.00
2018-05-06T07:41:15.124Z,224.00
2018-05-06T07:42:15.138Z,224.00
2018-05-06T07:43:15.159Z,228.00
2018-05-06T07:44:15.167Z,232.00
2018-05-06T07:45:15.184Z,232.00
2018-05-06T07:46:15.201Z,236.00
2018-05-06T07:47:15.215Z,236.00
2018-05-06T07:48:15.234Z,236.00
2018-05-06T07:49:15.249Z,244.00
2018-05-06T07:50:15.260Z,240.00
2018-05-06T07:51:15.277Z,244.00
2018-05-06T07:52:15.292Z,244.00
2018-05-06T07:53:15.309Z,248.00
2018-05-06T07:54:15.323Z,252.00
2018-05-06T07:55:15.337Z,252.00
2018-05-06T07:56:15.352Z,256.00
2018-05-06T07:57:15.367Z,256.00
2018-05-06T07:58:15.385Z,260.00
2018-05-06T07:59:15.399Z,264.00
2018-05-06T08:00:15.414Z,264.00
2018-05-06T08:01:15.431Z,268.00
2018-05-06T08:02:15.446Z,268.00
2018-05-06T08:03:15.462Z,272.00
2018-05-06T08:04:15.477Z,276.00
2018-05-06T08:05:15.492Z,280.00
2018-05-06T08:06:15.507Z,280.00
2018-05-06T08:07:15.523Z,284.00
2018-05-06T08:08:15.539Z,284.00
2018-05-06T08:09:15.555Z,288.00
2018-05-06T08:10:15.569Z,292.00
2018-05-06T08:11:15.587Z,296.00
2018-05-06T08:12:15.601Z,296.00
2018-05-06T08:13:15.621Z,300.00
2018-05-06T08:14:15.632Z,304.00
2018-05-06T08:15:15.648Z,304.00
2018-05-06T08:16:15.668Z,312.00
2018-05-06T08:17:15.678Z,312.00
2018-05-06T08:18:15.696Z,312.00
2018-05-06T08:19:15.709Z,316.00
2018-05-06T08:20:15.725Z,320.00
2018-05-06T08:21:15.741Z,320.00
2018-05-06T08:22:15.757Z,324.00
2018-05-06T08:23:15.773Z,332.00
2018-05-06T08:24:15.788Z,332.00
2018-05-06T08:25:15.805Z,336.00
2018-05-06T08:26:15.823Z,336.00
2018-05-06T08:27:15.836Z,340.00
2018-05-06T08:28:15.852Z,344.00
2018-05-06T08:29:15.867Z,348.00
2018-05-06T08:30:15.884Z,352.00
2018-05-06T08:31:16.070Z,356.00
2018-05-06T08:32:15.917Z,360.00
2018-05-06T08:33:15.932Z,364.00
2018-05-06T08:34:15.948Z,368.00
2018-05-06T08:35:15.968Z,372.00
2018-05-06T08:36:15.980Z,376.00
2018-05-06T08:37:15.998Z,380.00
2018-05-06T08:38:16.014Z,384.00
2018-05-06T08:39:16.030Z,388.00
2018-05-06T08:40:16.045Z,392.00
2018-05-06T08:41:16.061Z,396.00
2018-05-06T08:42:16.078Z,400.00
2018-05-06T08:43:16.098Z,404.00
2018-05-06T08:44:16.112Z,408.00
2018-05-06T08:45:16.127Z,412.00
2018-05-06T08:46:16.146Z,416.00
2018-05-06T08:47:16.161Z,420.00
2018-05-06T08:48:16.179Z,428.00
2018-05-06T08:49:16.196Z,428.00
2018-05-06T08:50:16.211Z,432.00
2018-05-06T08:51:16.235Z,436.00
2018-05-06T08:52:16.244Z,444.00
2018-05-06T08:53:16.259Z,448.00
2018-05-06T08:54:16.278Z,452.00
2018-05-06T08:55:16.293Z,460.00
2018-05-06T08:56:16.312Z,460.00
2018-05-06T08:57:16.333Z,468.00
2018-05-06T08:58:16.341Z,476.00
2018-05-06T08:59:16.359Z,480.00
2018-05-06T09:00:16.376Z,484.00
2018-05-06T09:01:16.394Z,492.00
2018-05-06T09:02:16.410Z,500.00
2018-05-06T09:03:16.426Z,508.00
2018-05-06T09:04:16.445Z,512.00
2018-05-06T09:05:16.464Z,520.00
2018-05-06T09:06:16.477Z,528.00
2018-05-06T09:07:16.494Z,536.00
2018-05-06T09:08:16.511Z,544.00
2018-05-06T09:09:16.533Z,552.00
2018-05-06T09:10:16.550Z,556.00
2018-05-06T09:11:16.561Z,564.00
2018-05-06T09:12:16.582Z,576.00
2018-05-06T09:13:16.597Z,580.00
2018-05-06T09:14:16.612Z,592.00
2018-05-06T09:15:16.630Z,600.00
2018-05-06T09:16:16.649Z,604.00
2018-05-06T09:17:16.661Z,616.00
2018-05-06T09:18:16.678Z,620.00
2018-05-06T09:19:16.696Z,628.00
2018-05-06T09:20:16.711Z,636.00
2018-05-06T09:21:16.730Z,648.00
2018-05-06T09:22:16.745Z,656.00
2018-05-06T09:23:16.771Z,664.00
2018-05-06T09:24:16.781Z,672.00
2018-05-06T09:25:16.821Z,680.00
2018-05-06T09:26:16.812Z,696.00
2018-05-06T09:27:16.832Z,700.00
2018-05-06T09:28:16.844Z,708.00
2018-05-06T09:29:16.863Z,720.00
2018-05-06T09:30:16.879Z,720.00
2018-05-06T09:31:16.900Z,732.00
2018-05-06T09:32:16.918Z,740.00
2018-05-06T09:33:16.939Z,748.00
2018-05-06T09:34:16.948Z,760.00
2018-05-06T09:35:16.964Z,764.00
2018-05-06T09:36:16.982Z,776.00
2018-05-06T09:37:17.000Z,784.00
2018-05-06T09:38:17.013Z,792.00
2018-05-06T09:39:17.033Z,804.00
2018-05-06T09:40:17.049Z,812.00
2018-05-06T09:41:17.067Z,820.00
2018-05-06T09:42:17.084Z,828.00
2018-05-06T09:43:17.101Z,836.00
2018-05-06T09:44:17.121Z,844.00
2018-05-06T09:45:17.136Z,852.00
2018-05-06T09:46:17.153Z,860.00
2018-05-06T09:47:17.174Z,868.00
2018-05-06T09:48:17.186Z,876.00
2018-05-06T09:49:17.206Z,888.00
2018-05-06T09:50:17.225Z,892.00
2018-05-06T09:51:17.240Z,904.00
2018-05-06T09:52:17.259Z,908.00
2018-05-06T09:53:17.278Z,920.00
2018-05-06T09:54:17.294Z,928.00
2018-05-06T09:55:17.312Z,936.00
2018-05-06T09:56:17.329Z,940.00
2018-05-06T09:57:17.347Z,948.00
2018-05-06T09:58:17.365Z,952.00
2018-05-06T09:59:17.385Z,960.00
2018-05-06T10:00:17.400Z,964.00
2018-05-06T10:01:17.418Z,968.00
2018-05-06T10:02:17.437Z,976.00
2018-05-06T10:03:17.455Z,984.00
2018-05-06T10:04:17.475Z,988.00
2018-05-06T10:05:17.488Z,1000.00
2018-05-06T10:06:17.510Z,1004.00
2018-05-06T10:07:17.525Z,1012.00
2018-05-06T10:08:17.569Z,1024.00
2018-05-06T10:09:17.565Z,1028.00
2018-05-06T10:10:17.582Z,1036.00
2018-05-06T10:11:17.600Z,1040.00
2018-05-06T10:12:17.619Z,1052.00
2018-05-06T10:13:17.637Z,1052.00
2018-05-06T10:14:17.657Z,1064.00
2018-05-06T10:15:17.676Z,1068.00
2018-05-06T10:16:17.692Z,1072.00
2018-05-06T10:17:17.712Z,1080.00
2018-05-06T10:18:17.732Z,1084.00
2018-05-06T10:19:17.750Z,1092.00
2018-05-06T10:20:17.767Z,1096.00
2018-05-06T10:21:17.788Z,1100.00
2018-05-06T10:22:17.857Z,1108.00
2018-05-06T10:23:17.823Z,1116.00
2018-05-06T10:24:17.843Z,1120.00
2018-05-06T10:25:17.862Z,1128.00
2018-05-06T10:26:17.890Z,1128.00
2018-05-06T10:27:17.899Z,1136.00
2018-05-06T10:28:17.920Z,1140.00
2018-05-06T10:29:17.939Z,1144.00
2018-05-06T10:30:17.957Z,1152.00
2018-05-06T10:31:17.977Z,1160.00
2018-05-06T10:32:17.997Z,1168.00
2018-05-06T10:33:18.017Z,1172.00
2018-05-06T10:34:18.034Z,1172.00
2018-05-06T10:35:18.054Z,1180.00
2018-05-06T10:36:18.087Z,1184.00
2018-05-06T10:37:18.091Z,1188.00
2018-05-06T10:38:18.109Z,1196.00
2018-05-06T10:39:18.136Z,1196.00
2018-05-06T10:40:18.149Z,1200.00
2018-05-06T10:41:18.168Z,1204.00
2018-05-06T10:42:18.256Z,1208.00
2018-05-06T10:43:18.207Z,1216.00
2018-05-06T10:44:18.268Z,1216.00
2018-05-06T10:45:18.248Z,1220.00
2018-05-06T10:46:18.270Z,1228.00
2018-05-06T10:47:18.285Z,1228.00
2018-05-06T10:48:18.303Z,1228.00
2018-05-06T10:49:18.350Z,1240.00
2018-05-06T10:50:18.414Z,1244.00
2018-05-06T10:51:18.361Z,1248.00
2018-05-06T10:52:18.380Z,1232.00
2018-05-06T10:53:18.398Z,1252.00
2018-05-06T10:54:18.421Z,1256.00
2018-05-06T10:55:18.439Z,1256.00
2018-05-06T10:56:18.458Z,1268.00
2018-05-06T10:57:18.480Z,1268.00
2018-05-06T10:58:18.497Z,1264.00
2018-05-06T10:59:18.516Z,1272.00
2018-05-06T11:00:18.538Z,1280.00
2018-05-06T11:01:18.558Z,1280.00
2018-05-06T11:02:18.575Z,1284.00
2018-05-06T11:03:18.592Z,1288.00
2018-05-06T11:04:18.611Z,1300.00
2018-05-06T11:05:18.631Z,1308.00
2018-05-06T11:06:18.652Z,1312.00
2018-05-06T11:07:18.675Z,1296.00
2018-05-06T11:08:18.690Z,1296.00
2018-05-06T11:09:18.708Z,1296.00
2018-05-06T11:10:18.839Z,1296.00
2018-05-06T11:11:18.748Z,1304.00
2018-05-06T11:12:18.766Z,1308.00
2018-05-06T11:13:18.785Z,1308.00
2018-05-06T11:14:18.805Z,1312.00
2018-05-06T11:15:18.824Z,1320.00
2018-05-06T11:16:18.844Z,1316.00
2018-05-06T11:17:18.863Z,1312.00
2018-05-06T11:18:18.882Z,1312.00
2018-05-06T11:19:18.903Z,1312.00
2018-05-06T11:20:18.921Z,1312.00
2018-05-06T11:21:18.942Z,1316.00
2018-05-06T11:22:18.962Z,1316.00
2018-05-06T11:23:18.979Z,1320.00
2018-05-06T11:24:19.002Z,1324.00
2018-05-06T11:25:19.018Z,1332.00
2018-05-06T11:26:19.114Z,1332.00
2018-05-06T11:27:19.056Z,1340.00
2018-05-06T11:28:19.076Z,1348.00
2018-05-06T11:29:19.095Z,1352.00
2018-05-06T11:30:19.118Z,1348.00
2018-05-06T11:31:19.138Z,1352.00
2018-05-06T11:32:19.157Z,1352.00
2018-05-06T11:33:19.195Z,1360.00
2018-05-06T11:34:19.195Z,1364.00
2018-05-06T11:35:19.216Z,1380.00
2018-05-06T11:36:19.288Z,1376.00
2018-05-06T11:37:19.259Z,1372.00
2018-05-06T11:38:19.276Z,1364.00
2018-05-06T11:39:19.296Z,1356.00
2018-05-06T11:40:19.321Z,1360.00
2018-05-06T11:41:19.337Z,1368.00
2018-05-06T11:42:19.356Z,1376.00
2018-05-06T11:43:19.375Z,1384.00
2018-05-06T11:44:19.397Z,1388.00
2018-05-06T11:45:19.415Z,1392.00
2018-05-06T11:46:19.436Z,1392.00
2018-05-06T11:47:19.457Z,1388.00
2018-05-06T11:48:19.475Z,1384.00
2018-05-06T11:49:19.497Z,1384.00
2018-05-06T11:50:19.516Z,1376.00
2018-05-06T11:51:19.540Z,1384.00
2018-05-06T11:52:19.556Z,1392.00
2018-05-06T11:53:19.576Z,1396.00
2018-05-06T11:54:19.599Z,1396.00
2018-05-06T11:55:19.616Z,1400.00
2018-05-06T11:56:19.643Z,1400.00
2018-05-06T11:57:19.660Z,1404.00
2018-05-06T11:58:19.676Z,1420.00
2018-05-06T11:59:19.698Z,1432.00
2018-05-06T12:00:19.719Z,1444.00
2018-05-06T12:01:19.740Z,1448.00
2018-05-06T12:02:19.793Z,1436.00
2018-05-06T12:03:19.787Z,1440.00
2018-05-06T12:04:19.799Z,1440.00
2018-05-06T12:05:19.819Z,1444.00
2018-05-06T12:06:19.837Z,1452.00
2018-05-06T12:07:19.861Z,1448.00
2018-05-06T12:08:19.880Z,1448.00
2018-05-06T12:09:19.905Z,1452.00
2018-05-06T12:10:19.923Z,1456.00
2018-05-06T12:11:19.944Z,1460.00
2018-05-06T12:12:19.965Z,1468.00
2018-05-06T12:13:19.983Z,1476.00
2018-05-06T12:14:20.005Z,1492.00
2018-05-06T12:15:20.024Z,1500.00
2018-05-06T12:16:20.046Z,1512.00
2018-05-06T12:17:20.065Z,1524.00
2018-05-06T12:18:20.087Z,1536.00
2018-05-06T12:19:20.195Z,1552.00
2018-05-06T12:20:20.129Z,1544.00
2018-05-06T12:21:20.154Z,1536.00
2018-05-06T12:22:20.171Z,1516.00
2018-05-06T12:23:20.191Z,1520.00
2018-05-06T12:24:20.211Z,1508.00
2018-05-06T12:25:20.239Z,1508.00
2018-05-06T12:26:20.253Z,1508.00
2018-05-06T12:27:20.277Z,1520.00
2018-05-06T12:28:20.295Z,1524.00
2018-05-06T12:29:20.316Z,1520.00
2018-05-06T12:30:20.336Z,1528.00
2018-05-06T12:31:20.359Z,1532.00
2018-05-06T12:32:20.378Z,1536.00
2018-05-06T12:33:20.399Z,1536.00
2018-05-06T12:34:20.431Z,1556.00
2018-05-06T12:35:20.442Z,1556.00
2018-05-06T12:36:20.461Z,1560.00
2018-05-06T12:37:20.482Z,1564.00
2018-05-06T12:38:20.503Z,1584.00
2018-05-06T12:39:20.528Z,696.00
2018-05-06T12:40:20.551Z,668.00
2018-05-06T12:41:20.565Z,1420.00
2018-05-06T12:42:20.670Z,1600.00